Time;durP1;ratioP1;P1;durP2;ratioP2;P2;SDS_P1;SDS_P2;PMS_P1;PMS_P2;Temp;Humidity;BMP_temperature;BMP_pressure;BME280_temperature;BME280_humidity;BME280_pressure;Samples;Min_cycle;Max_cycle;Signal;HPM_P1;HPM_P2
2021/12/17 00:04:31;;;;;;;47.93;11.33;;;;;;;;;;5016664;23;21435;-79
2021/12/17 00:06:57;;;;;;;45.90;10.40;;;;;;;;;;5053420;23;20213;-76
2021/12/17 00:09:24;;;;;;;32.97;9.73;;;;;;;;;;5026860;23;20253;-77
2021/12/17 00:11:50;;;;;;;42.93;9.73;;;;;;;;;;5023098;23;20205;-78
2021/12/17 00:14:26;;;;;;;35.77;9.67;;;;;;;;;;5032880;23;21733;-77
2021/12/17 00:16:57;;;;;;;40.03;9.97;;;;;;;;;;5019934;23;20448;-77
2021/12/17 00:49:35;;;;;;;37.57;8.83;;;;;;;;;;5036443;23;21675;-78
2021/12/17 00:52:03;;;;;;;38.07;8.47;;;;;;;;;;5029452;23;23202;-78
2021/12/17 00:54:40;;;;;;;34.57;8.47;;;;;;;;;;5017256;23;22515;-80
2021/12/17 00:57:12;;;;;;;43.20;8.83;;;;;;;;;;5026301;23;20208;-78
2021/12/17 00:59:39;;;;;;;36.53;8.40;;;;;;;;;;5045787;23;20215;-79
2021/12/17 01:36:46;;;;;;;37.70;6.70;;;;;;;;;;6193430;23;20729;-67
2021/12/17 01:40:35;;;;;;;30.80;6.77;;;;;;;;;;6210458;23;20169;-66
2021/12/17 01:42:20;;;;;;;36.10;6.93;;;;;;;;;;6212584;23;20265;-68
2021/12/17 01:44:46;;;;;;;34.77;6.80;;;;;;;;;;6212222;22;20949;-71
2021/12/17 01:47:14;;;;;;;26.73;6.03;;;;;;;;;;6168254;23;20851;-75
2021/12/17 02:00:18;;;;;;;31.53;6.47;;;;;;;;;;6180334;23;20920;-73
2021/12/17 02:02:50;;;;;;;31.70;6.17;;;;;;;;;;6179588;23;20266;-74
2021/12/17 02:05:16;;;;;;;43.17;6.60;;;;;;;;;;6155825;23;20213;-73
2021/12/17 02:07:44;;;;;;;33.67;5.60;;;;;;;;;;6182993;23;20534;-75
2021/12/17 02:10:48;;;;;;;27.87;5.70;;;;;;;;;;6182416;23;20968;-73
2021/12/17 02:22:18;;;;;;;33.40;6.10;;;;;;;;;;6119574;23;20805;-74
2021/12/17 02:30:46;;;;;;;34.37;6.73;;;;;;;;;;6180674;23;20870;-70
2021/12/17 02:33:13;;;;;;;33.00;6.30;;;;;;;;;;6179815;23;20208;-71
2021/12/17 02:35:43;;;;;;;24.00;6.13;;;;;;;;;;6180388;23;20647;-72
2021/12/17 02:38:12;;;;;;;31.23;5.63;;;;;;;;;;6184812;23;20221;-72
2021/12/17 02:46:08;;;;;;;26.83;5.93;;;;;;;;;;6193899;23;20243;-71
2021/12/17 02:48:36;;;;;;;31.27;5.80;;;;;;;;;;6193322;23;20209;-73
2021/12/17 02:51:03;;;;;;;35.20;5.90;;;;;;;;;;6167986;23;20224;-72
2021/12/17 02:53:30;;;;;;;35.53;6.20;;;;;;;;;;6189906;23;20535;-72
2021/12/17 02:56:08;;;;;;;34.40;5.93;;;;;;;;;;6159081;23;20652;-74
2021/12/17 02:58:35;;;;;;;43.50;7.07;;;;;;;;;;6175243;23;20566;-74
2021/12/17 03:01:03;;;;;;;32.30;7.23;;;;;;;;;;6159395;23;20217;-74
2021/12/17 03:03:31;;;;;;;32.43;6.27;;;;;;;;;;6174199;23;20210;-73
2021/12/17 03:05:57;;;;;;;23.47;5.60;;;;;;;;;;6176034;23;20204;-73
2021/12/17 03:08:24;;;;;;;38.93;6.37;;;;;;;;;;6177436;23;20224;-76
2021/12/17 03:10:50;;;;;;;31.70;6.53;;;;;;;;;;6178119;23;20217;-75
2021/12/17 03:13:18;;;;;;;33.33;6.23;;;;;;;;;;6175623;23;20224;-74
2021/12/17 03:24:10;;;;;;;25.43;5.80;;;;;;;;;;4336704;28;20593;-67
2021/12/17 03:26:36;;;;;;;34.23;5.93;;;;;;;;;;4196538;28;20228;-68
2021/12/17 03:29:04;;;;;;;27.27;5.30;;;;;;;;;;4197529;28;20237;-67
2021/12/17 03:31:33;;;;;;;34.10;5.40;;;;;;;;;;4202701;28;20974;-67
2021/12/17 03:34:16;;;;;;;28.07;5.63;;;;;;;;;;4203125;28;20263;-67
2021/12/17 03:36:44;;;;;;;30.77;5.47;;;;;;;;;;4206414;28;20276;-66
2021/12/17 03:39:10;;;;;;;32.07;5.27;;;;;;;;;;4207693;28;21046;-68
2021/12/17 03:41:38;;;;;;;33.67;6.07;;;;;;;;;;4208547;28;20404;-67
2021/12/17 03:44:06;;;;;;;36.27;5.57;;;;;;;;;;4211034;28;20460;-68
2021/12/17 03:46:33;;;;;;;32.83;5.83;;;;;;;;;;4215357;28;20241;-67
2021/12/17 03:49:00;;;;;;;22.30;5.37;;;;;;;;;;4202274;28;20232;-69
2021/12/17 03:51:27;;;;;;;25.30;5.87;;;;;;;;;;4207286;28;20316;-68
2021/12/17 03:53:55;;;;;;;27.73;5.17;;;;;;;;;;4203306;28;21119;-68
2021/12/17 03:56:22;;;;;;;24.87;5.27;;;;;;;;;;4196239;28;21471;-68
2021/12/17 03:58:51;;;;;;;33.07;6.20;;;;;;;;;;4182289;28;20229;-68
2021/12/17 04:01:19;;;;;;;29.43;6.20;;;;;;;;;;4196838;28;20324;-68
2021/12/17 04:03:46;;;;;;;30.70;6.47;;;;;;;;;;4194896;28;20351;-67
2021/12/17 04:06:13;;;;;;;30.37;6.20;;;;;;;;;;4198804;28;20234;-68
2021/12/17 04:08:39;;;;;;;39.10;6.40;;;;;;;;;;4198353;28;22392;-68
2021/12/17 04:11:16;;;;;;;24.83;5.20;;;;;;;;;;4197623;28;20899;-68
2021/12/17 04:13:43;;;;;;;32.87;6.10;;;;;;;;;;4198525;28;21167;-67
2021/12/17 04:16:11;;;;;;;39.00;6.73;;;;;;;;;;4208102;28;21074;-68
2021/12/17 04:18:40;;;;;;;23.20;5.63;;;;;;;;;;4196562;28;20299;-68
2021/12/17 04:21:14;;;;;;;33.03;5.47;;;;;;;;;;4194100;28;20218;-68
2021/12/17 04:23:41;;;;;;;21.50;5.67;;;;;;;;;;4200882;28;22471;-68
2021/12/17 04:26:08;;;;;;;26.80;5.30;;;;;;;;;;4186165;28;20229;-67
2021/12/17 04:28:41;;;;;;;36.13;6.00;;;;;;;;;;4194434;28;20359;-67
2021/12/17 04:31:07;;;;;;;27.07;5.13;;;;;;;;;;4189513;28;20365;-67
2021/12/17 04:33:34;;;;;;;29.07;5.63;;;;;;;;;;4182616;28;22908;-67
2021/12/17 04:36:00;;;;;;;25.27;4.67;;;;;;;;;;4198434;28;21470;-67
2021/12/17 04:38:28;;;;;;;28.83;5.47;;;;;;;;;;4178858;28;20278;-67
2021/12/17 04:40:57;;;;;;;27.57;4.93;;;;;;;;;;4190826;28;21604;-68
2021/12/17 04:43:39;;;;;;;34.97;4.67;;;;;;;;;;4173423;28;20237;-67
2021/12/17 04:46:24;;;;;;;29.07;5.30;;;;;;;;;;4181432;28;20234;-67
2021/12/17 04:57:29;;;;;;;35.60;6.53;;;;;;;;;;4174999;28;20609;-69
2021/12/17 04:59:58;;;;;;;36.87;5.23;;;;;;;;;;4172988;28;20648;-68
2021/12/17 05:02:25;;;;;;;37.37;5.97;;;;;;;;;;4181845;28;20497;-68
2021/12/17 05:04:53;;;;;;;28.40;5.90;;;;;;;;;;4169484;28;20309;-67
2021/12/17 05:07:22;;;;;;;28.80;5.20;;;;;;;;;;4189323;28;25626;-67
2021/12/17 05:18:17;;;;;;;30.17;5.00;;;;;;;;;;4181678;28;25824;-67
2021/12/17 05:20:48;;;;;;;30.73;4.30;;;;;;;;;;4176477;28;20324;-68
2021/12/17 05:23:16;;;;;;;26.90;4.83;;;;;;;;;;4176124;28;20257;-67
2021/12/17 05:25:42;;;;;;;28.27;4.87;;;;;;;;;;4173216;28;20229;-68
2021/12/17 05:28:08;;;;;;;28.57;5.03;;;;;;;;;;4198252;28;20253;-68
2021/12/17 05:30:35;;;;;;;25.03;4.90;;;;;;;;;;4167148;28;20234;-67
2021/12/17 05:33:01;;;;;;;28.83;5.67;;;;;;;;;;4178072;28;21281;-69
2021/12/17 05:35:28;;;;;;;29.80;5.20;;;;;;;;;;4198620;28;25553;-68
2021/12/17 05:37:54;;;;;;;29.97;5.67;;;;;;;;;;4183016;28;22376;-68
2021/12/17 05:40:21;;;;;;;27.23;4.80;;;;;;;;;;4180622;28;20234;-67
2021/12/17 05:42:50;;;;;;;25.40;5.50;;;;;;;;;;4186603;28;21506;-68
2021/12/17 05:45:22;;;;;;;25.87;4.83;;;;;;;;;;4220392;28;20230;-67
2021/12/17 05:47:49;;;;;;;24.43;5.10;;;;;;;;;;4176760;28;20279;-69
2021/12/17 05:50:15;;;;;;;32.43;5.87;;;;;;;;;;4180802;28;20236;-67
2021/12/17 05:52:42;;;;;;;26.67;5.47;;;;;;;;;;4177450;28;20236;-67
2021/12/17 05:55:08;;;;;;;25.90;5.93;;;;;;;;;;4193254;28;20315;-69
2021/12/17 05:57:34;;;;;;;24.87;5.60;;;;;;;;;;4182443;28;21448;-67
2021/12/17 06:00:01;;;;;;;25.13;5.13;;;;;;;;;;4181168;28;20246;-68
2021/12/17 06:02:27;;;;;;;30.60;5.77;;;;;;;;;;4174562;28;21270;-68
2021/12/17 06:04:54;;;;;;;23.70;5.30;;;;;;;;;;4176889;28;21677;-68
2021/12/17 06:07:30;;;;;;;26.57;5.43;;;;;;;;;;4178232;28;21200;-67
2021/12/17 06:09:59;;;;;;;27.30;5.70;;;;;;;;;;4163985;28;22543;-69
2021/12/17 06:12:26;;;;;;;37.07;6.50;;;;;;;;;;4173447;28;20514;-69
2021/12/17 06:14:52;;;;;;;37.93;5.83;;;;;;;;;;4188294;28;21677;-68
2021/12/17 06:17:18;;;;;;;30.27;5.90;;;;;;;;;;4183300;28;20817;-69
2021/12/17 06:19:45;;;;;;;33.53;6.23;;;;;;;;;;4173052;28;23181;-70
2021/12/17 06:22:11;;;;;;;29.57;6.47;;;;;;;;;;4171303;28;20282;-70
2021/12/17 06:24:37;;;;;;;29.00;6.13;;;;;;;;;;4147179;28;20316;-69
2021/12/17 06:27:04;;;;;;;25.13;5.10;;;;;;;;;;4170254;28;21154;-70
2021/12/17 06:29:30;;;;;;;21.83;5.43;;;;;;;;;;4162510;28;20229;-69
2021/12/17 06:31:57;;;;;;;25.37;5.43;;;;;;;;;;4188869;28;20928;-69
2021/12/17 06:34:23;;;;;;;41.13;6.60;;;;;;;;;;4171375;28;20233;-71
2021/12/17 06:36:49;;;;;;;33.53;6.00;;;;;;;;;;4165865;28;22242;-70
2021/12/17 06:39:15;;;;;;;31.07;6.53;;;;;;;;;;4156619;28;20246;-68
2021/12/17 06:41:42;;;;;;;32.73;6.33;;;;;;;;;;4161931;28;20230;-70
2021/12/17 06:44:11;;;;;;;26.27;4.83;;;;;;;;;;4152900;28;21854;-70
2021/12/17 06:46:56;;;;;;;31.80;5.93;;;;;;;;;;4156355;28;20244;-68
2021/12/17 06:49:31;;;;;;;30.10;5.80;;;;;;;;;;4149554;28;21347;-68
2021/12/17 06:55:19;;;;;;;30.40;5.67;;;;;;;;;;4158806;28;20238;-69
2021/12/17 07:10:59;;;;;;;23.70;5.73;;;;;;;;;;4190200;28;20490;-68
2021/12/17 07:21:40;;;;;;;24.47;6.70;;;;;;;;;;4169427;28;20238;-68
2021/12/17 07:32:31;;;;;;;23.37;6.20;;;;;;;;;;4193923;28;20233;-65
2021/12/17 07:38:37;;;;;;;29.70;5.83;;;;;;;;;;4194156;28;21105;-68
2021/12/17 07:40:22;;;;;;;30.90;6.67;;;;;;;;;;4198948;28;20241;-67
2021/12/17 07:42:49;;;;;;;29.93;7.03;;;;;;;;;;4195463;28;21345;-66
2021/12/17 07:45:16;;;;;;;26.33;6.23;;;;;;;;;;4206913;28;20239;-67
2021/12/17 07:50:15;;;;;;;32.47;6.67;;;;;;;;;;4952043;28;20228;-70
2021/12/17 07:52:41;;;;;;;34.90;7.03;;;;;;;;;;4951573;28;20235;-71
2021/12/17 07:55:09;;;;;;;30.83;7.07;;;;;;;;;;4952598;28;20350;-73
2021/12/17 07:57:35;;;;;;;34.43;6.20;;;;;;;;;;4952623;28;20252;-71
2021/12/17 08:00:03;;;;;;;22.10;6.20;;;;;;;;;;4952644;28;20224;-72
2021/12/17 08:02:29;;;;;;;27.87;7.70;;;;;;;;;;4950802;28;20343;-71
2021/12/17 08:04:56;;;;;;;31.57;7.87;;;;;;;;;;4950433;28;20231;-70
2021/12/17 08:07:22;;;;;;;30.20;7.17;;;;;;;;;;4950708;28;20231;-70
2021/12/17 08:09:49;;;;;;;31.67;6.83;;;;;;;;;;4954972;28;20231;-72
2021/12/17 08:12:17;;;;;;;24.77;6.50;;;;;;;;;;4957603;28;20781;-70
2021/12/17 08:14:43;;;;;;;29.30;7.07;;;;;;;;;;4960230;28;20243;-70
2021/12/17 08:25:26;;;;;;;35.60;8.27;;;;;;;;;;4947475;28;20224;-70
2021/12/17 08:28:08;;;;;;;34.50;7.40;;;;;;;;;;4947977;28;20783;-70
2021/12/17 08:30:40;;;;;;;29.23;7.67;;;;;;;;;;4947619;28;20510;-71
2021/12/17 08:33:07;;;;;;;33.20;8.17;;;;;;;;;;4944645;28;20260;-70
2021/12/17 08:35:34;;;;;;;36.80;7.93;;;;;;;;;;4963256;28;20323;-69
2021/12/17 08:38:04;;;;;;;31.47;7.60;;;;;;;;;;4961181;28;20318;-69
2021/12/17 08:40:31;;;;;;;35.07;7.23;;;;;;;;;;4943625;28;20224;-72
2021/12/17 08:42:58;;;;;;;37.20;7.57;;;;;;;;;;4942780;28;20244;-71
2021/12/17 08:45:24;;;;;;;31.60;7.50;;;;;;;;;;4958352;28;20236;-71
2021/12/17 08:47:51;;;;;;;30.43;7.57;;;;;;;;;;4958068;28;20849;-71
2021/12/17 08:50:19;;;;;;;28.73;8.27;;;;;;;;;;4955201;28;20235;-73
2021/12/17 08:52:46;;;;;;;32.57;8.53;;;;;;;;;;4955061;28;20684;-71
2021/12/17 08:55:12;;;;;;;32.77;9.57;;;;;;;;;;4956322;28;20304;-70
2021/12/17 08:57:39;;;;;;;29.77;8.57;;;;;;;;;;4955883;28;20232;-71
2021/12/17 09:00:08;;;;;;;26.30;8.67;;;;;;;;;;4952986;28;20236;-71
2021/12/17 09:02:36;;;;;;;38.90;8.33;;;;;;;;;;4929765;28;20251;-71
2021/12/17 09:05:07;;;;;;;35.93;9.07;;;;;;;;;;4923571;28;20314;-72
2021/12/17 09:07:33;;;;;;;28.33;8.40;;;;;;;;;;4938241;28;20238;-71
2021/12/17 09:10:03;;;;;;;32.30;8.30;;;;;;;;;;4955084;28;20234;-71
2021/12/17 09:12:30;;;;;;;33.77;8.50;;;;;;;;;;4936793;28;20291;-71
2021/12/17 09:14:57;;;;;;;36.83;9.20;;;;;;;;;;4939948;28;20309;-72
2021/12/17 09:17:24;;;;;;;33.47;9.37;;;;;;;;;;4954232;28;20224;-74
2021/12/17 09:19:51;;;;;;;32.93;8.07;;;;;;;;;;4956010;28;20239;-72
2021/12/17 09:22:17;;;;;;;34.70;8.50;;;;;;;;;;4955239;28;20236;-74
2021/12/17 09:24:43;;;;;;;34.03;8.20;;;;;;;;;;4938675;28;20237;-73
2021/12/17 09:27:10;;;;;;;26.13;7.90;;;;;;;;;;4954076;28;20255;-74
2021/12/17 09:29:36;;;;;;;37.83;9.67;;;;;;;;;;4954636;28;20232;-72
2021/12/17 09:32:03;;;;;;;26.33;7.73;;;;;;;;;;4954558;28;20322;-72
2021/12/17 09:34:29;;;;;;;23.63;7.50;;;;;;;;;;4937738;28;20278;-70
2021/12/17 09:36:55;;;;;;;25.00;8.40;;;;;;;;;;4954570;28;21070;-74
2021/12/17 09:39:22;;;;;;;31.43;8.17;;;;;;;;;;4953076;28;20230;-74
2021/12/17 09:41:50;;;;;;;32.07;9.97;;;;;;;;;;4953317;28;20310;-71
2021/12/17 09:44:18;;;;;;;26.43;8.90;;;;;;;;;;4953271;28;20350;-72
2021/12/17 09:46:46;;;;;;;29.63;9.23;;;;;;;;;;4953650;28;20781;-72
2021/12/17 09:49:18;;;;;;;29.93;8.43;;;;;;;;;;4953090;28;20254;-72
2021/12/17 09:51:46;;;;;;;27.83;8.17;;;;;;;;;;4937178;28;20232;-72
2021/12/17 09:54:13;;;;;;;33.97;7.93;;;;;;;;;;4937653;28;20232;-72
2021/12/17 09:56:39;;;;;;;24.37;7.50;;;;;;;;;;4954375;28;20248;-71
2021/12/17 09:59:07;;;;;;;23.20;7.80;;;;;;;;;;4954286;28;20300;-72
2021/12/17 10:01:38;;;;;;;29.17;8.17;;;;;;;;;;4953918;28;20355;-71
2021/12/17 10:04:12;;;;;;;25.00;7.60;;;;;;;;;;4937273;28;20227;-73
2021/12/17 10:06:38;;;;;;;27.70;7.23;;;;;;;;;;4936131;28;20236;-71
2021/12/17 10:09:05;;;;;;;29.80;7.47;;;;;;;;;;4953904;28;20228;-75
2021/12/17 10:11:34;;;;;;;21.67;7.27;;;;;;;;;;4937189;28;20306;-72
2021/12/17 10:14:19;;;;;;;22.00;6.90;;;;;;;;;;4952351;28;20885;-73
2021/12/17 10:16:45;;;;;;;26.17;8.40;;;;;;;;;;4938002;28;20236;-73
2021/12/17 10:19:12;;;;;;;25.73;7.50;;;;;;;;;;4952606;28;20220;-73
2021/12/17 10:21:44;;;;;;;28.03;6.67;;;;;;;;;;4953506;28;20232;-73
2021/12/17 10:24:20;;;;;;;25.87;6.60;;;;;;;;;;4933273;28;20224;-72
2021/12/17 10:26:46;;;;;;;21.37;6.20;;;;;;;;;;4936008;28;20890;-73
2021/12/17 10:29:18;;;;;;;19.10;5.13;;;;;;;;;;4952900;28;20726;-71
2021/12/17 10:31:54;;;;;;;20.13;5.73;;;;;;;;;;4951669;28;21416;-73
2021/12/17 10:34:20;;;;;;;21.50;5.67;;;;;;;;;;4934848;28;20238;-74
2021/12/17 10:36:46;;;;;;;25.80;5.70;;;;;;;;;;4949423;28;20569;-74
2021/12/17 10:39:28;;;;;;;23.50;5.53;;;;;;;;;;4953196;28;21323;-77
2021/12/17 10:41:54;;;;;;;23.57;5.37;;;;;;;;;;4939088;28;20232;-76
2021/12/17 10:44:22;;;;;;;18.37;5.43;;;;;;;;;;4953360;28;20318;-76
2021/12/17 10:49:56;;;;;;;22.80;6.10;;;;;;;;;;4938846;28;20232;-79
2021/12/17 10:52:31;;;;;;;20.70;5.20;;;;;;;;;;4939461;28;22199;-75
2021/12/17 10:55:16;;;;;;;20.87;4.97;;;;;;;;;;4938948;28;20572;-76
2021/12/17 10:57:43;;;;;;;19.87;4.80;;;;;;;;;;4940175;28;20227;-82
2021/12/17 11:00:10;;;;;;;22.37;5.27;;;;;;;;;;4954877;28;20262;-80
2021/12/17 11:02:37;;;;;;;23.20;4.53;;;;;;;;;;4954344;28;20236;-78
2021/12/17 11:05:11;;;;;;;17.37;5.37;;;;;;;;;;4954496;28;20246;-77
2021/12/17 11:07:41;;;;;;;19.57;5.13;;;;;;;;;;4938262;28;20318;-77
2021/12/17 11:10:07;;;;;;;20.20;5.37;;;;;;;;;;4937176;28;20228;-75
2021/12/17 11:12:33;;;;;;;25.67;5.27;;;;;;;;;;4955011;28;20255;-75
2021/12/17 11:15:21;;;;;;;21.23;5.07;;;;;;;;;;4955038;28;20228;-77
2021/12/17 11:17:55;;;;;;;12.37;4.87;;;;;;;;;;4939951;28;20255;-75
2021/12/17 11:20:23;;;;;;;15.03;4.30;;;;;;;;;;4926218;28;20703;-74
2021/12/17 11:22:51;;;;;;;14.27;4.43;;;;;;;;;;4955038;28;21050;-72
2021/12/17 11:25:18;;;;;;;15.77;4.60;;;;;;;;;;4917943;28;20319;-75
2021/12/17 11:27:45;;;;;;;21.60;4.57;;;;;;;;;;4936481;28;20228;-74
2021/12/17 11:30:16;;;;;;;20.07;4.30;;;;;;;;;;4955259;28;20227;-76
2021/12/17 11:32:44;;;;;;;12.30;4.07;;;;;;;;;;4939257;28;20729;-76
2021/12/17 11:35:11;;;;;;;17.73;4.23;;;;;;;;;;4935525;28;20224;-74
2021/12/17 11:37:41;;;;;;;17.63;3.90;;;;;;;;;;4953089;28;20281;-72
2021/12/17 11:40:10;;;;;;;14.80;4.33;;;;;;;;;;4934832;28;20367;-71
2021/12/17 11:42:55;;;;;;;17.00;3.53;;;;;;;;;;4953257;28;20958;-73
2021/12/17 11:45:29;;;;;;;18.47;4.60;;;;;;;;;;4942082;28;20270;-74
2021/12/17 11:48:10;;;;;;;17.53;4.93;;;;;;;;;;4941635;28;20274;-75
2021/12/17 11:50:40;;;;;;;16.20;3.93;;;;;;;;;;4928351;28;20251;-74
2021/12/17 11:53:21;;;;;;;14.43;3.40;;;;;;;;;;4957512;28;20239;-73
2021/12/17 11:55:59;;;;;;;19.57;4.27;;;;;;;;;;4942044;28;20359;-75
2021/12/17 11:58:53;;;;;;;10.53;3.83;;;;;;;;;;4942158;28;20223;-73
2021/12/17 12:01:39;;;;;;;16.37;3.80;;;;;;;;;;4938427;28;20854;-75
2021/12/17 12:04:37;;;;;;;20.60;4.40;;;;;;;;;;4940210;28;20244;-74
2021/12/17 12:07:22;;;;;;;18.47;4.23;;;;;;;;;;4927119;28;20220;-74
2021/12/17 12:09:58;;;;;;;13.37;3.73;;;;;;;;;;4941090;28;20228;-73
2021/12/17 12:12:25;;;;;;;17.77;3.73;;;;;;;;;;4940140;28;21167;-74
2021/12/17 12:14:53;;;;;;;16.10;3.70;;;;;;;;;;4941038;28;20232;-73
2021/12/17 12:17:38;;;;;;;15.80;3.30;;;;;;;;;;4924596;28;20259;-73
2021/12/17 12:20:04;;;;;;;12.87;3.33;;;;;;;;;;4925423;28;20232;-74
2021/12/17 12:22:31;;;;;;;16.10;3.70;;;;;;;;;;4957306;28;20228;-74
2021/12/17 12:25:16;;;;;;;13.03;3.50;;;;;;;;;;4940660;28;21299;-73
2021/12/17 12:27:46;;;;;;;18.20;4.03;;;;;;;;;;4938643;28;20772;-76
2021/12/17 12:30:13;;;;;;;12.63;2.90;;;;;;;;;;4939566;28;20262;-78
2021/12/17 12:32:59;;;;;;;15.37;3.57;;;;;;;;;;4954789;28;20324;-76
2021/12/17 12:35:30;;;;;;;12.97;3.17;;;;;;;;;;4938914;28;20228;-77
2021/12/17 12:38:16;;;;;;;20.30;3.73;;;;;;;;;;4941228;28;20775;-71
2021/12/17 12:40:50;;;;;;;14.33;3.30;;;;;;;;;;4954960;28;20584;-75
2021/12/17 12:43:30;;;;;;;16.63;3.60;;;;;;;;;;4954566;28;20236;-70
2021/12/17 12:45:57;;;;;;;13.27;3.27;;;;;;;;;;4939584;28;20252;-70
2021/12/17 12:48:27;;;;;;;12.60;3.30;;;;;;;;;;4956572;28;20953;-73
2021/12/17 12:51:13;;;;;;;14.67;3.60;;;;;;;;;;4941238;28;20224;-64
2021/12/17 12:53:45;;;;;;;18.57;3.47;;;;;;;;;;4953920;23;20315;-65
2021/12/17 12:56:18;;;;;;;12.77;3.30;;;;;;;;;;4937974;28;20224;-73
2021/12/17 12:58:49;;;;;;;14.97;3.97;;;;;;;;;;4934652;28;20952;-65
2021/12/17 13:01:18;;;;;;;11.07;3.33;;;;;;;;;;4923054;28;20232;-65
2021/12/17 13:03:45;;;;;;;16.13;3.53;;;;;;;;;;4919804;28;20684;-65
2021/12/17 13:06:18;;;;;;;17.30;4.03;;;;;;;;;;4945035;28;20948;-67
2021/12/17 13:08:55;;;;;;;19.10;4.07;;;;;;;;;;4928669;28;20336;-63
2021/12/17 13:11:23;;;;;;;12.37;3.43;;;;;;;;;;4950137;28;20241;-65
2021/12/17 13:13:52;;;;;;;9.20;3.30;;;;;;;;;;4931980;28;20251;-63
2021/12/17 13:16:34;;;;;;;10.43;2.90;;;;;;;;;;4949474;28;20228;-65
2021/12/17 13:24:20;;;;;;;16.07;4.17;;;;;;;;;;4907301;28;20699;-65
2021/12/17 13:26:51;;;;;;;13.87;3.80;;;;;;;;;;4926746;28;20247;-64
2021/12/17 13:29:21;;;;;;;13.63;3.53;;;;;;;;;;4938915;28;20526;-63
2021/12/17 13:31:47;;;;;;;15.77;3.50;;;;;;;;;;4954814;28;20711;-64
2021/12/17 13:34:17;;;;;;;10.73;3.30;;;;;;;;;;4956906;28;20228;-65
2021/12/17 13:36:51;;;;;;;19.47;4.03;;;;;;;;;;4908363;28;20227;-65
2021/12/17 13:39:18;;;;;;;18.03;4.00;;;;;;;;;;4937078;28;20898;-66
2021/12/17 13:41:45;;;;;;;15.80;4.00;;;;;;;;;;4899084;28;20622;-65
2021/12/17 13:44:31;;;;;;;18.63;4.03;;;;;;;;;;4923736;28;20252;-65
2021/12/17 13:47:12;;;;;;;19.77;3.97;;;;;;;;;;4937006;28;20238;-65
2021/12/17 13:49:57;;;;;;;19.37;4.83;;;;;;;;;;4942598;28;20899;-63
2021/12/17 13:52:25;;;;;;;15.57;4.87;;;;;;;;;;4937903;28;20343;-64
2021/12/17 13:54:52;;;;;;;17.90;4.37;;;;;;;;;;4950444;28;20350;-64
2021/12/17 13:57:19;;;;;;;16.13;4.10;;;;;;;;;;4932289;28;20224;-65
2021/12/17 13:59:46;;;;;;;14.33;4.10;;;;;;;;;;4971225;28;20309;-64
2021/12/17 14:02:14;;;;;;;12.20;3.77;;;;;;;;;;4941066;28;20313;-64
2021/12/17 14:04:41;;;;;;;23.43;5.03;;;;;;;;;;4932729;28;20323;-66
2021/12/17 14:07:09;;;;;;;20.80;4.77;;;;;;;;;;4928563;28;20223;-64
2021/12/17 14:09:36;;;;;;;14.43;4.10;;;;;;;;;;4965382;28;20228;-64
2021/12/17 14:12:10;;;;;;;14.67;4.33;;;;;;;;;;4955456;28;20306;-65
2021/12/17 14:15:01;;;;;;;19.13;4.50;;;;;;;;;;4960867;28;21111;-66
2021/12/17 14:17:38;;;;;;;19.80;4.97;;;;;;;;;;4942571;28;20232;-66
2021/12/17 14:20:13;;;;;;;17.63;4.40;;;;;;;;;;4941157;28;21691;-65
2021/12/17 14:22:41;;;;;;;15.97;4.03;;;;;;;;;;4942235;28;20344;-66
2021/12/17 14:25:27;;;;;;;15.40;3.80;;;;;;;;;;4936330;28;20302;-65
2021/12/17 14:27:58;;;;;;;19.80;4.67;;;;;;;;;;4946361;28;20231;-65
2021/12/17 14:30:32;;;;;;;17.73;4.93;;;;;;;;;;4952372;28;20313;-65
2021/12/17 14:33:04;;;;;;;14.93;4.43;;;;;;;;;;4952587;28;20342;-65
2021/12/17 14:35:51;;;;;;;13.37;4.50;;;;;;;;;;4942690;28;20242;-66
2021/12/17 14:38:18;;;;;;;10.60;3.50;;;;;;;;;;4948524;28;21025;-67
2021/12/17 14:40:53;;;;;;;14.00;3.97;;;;;;;;;;4947621;28;20972;-67
2021/12/17 14:43:20;;;;;;;18.27;4.33;;;;;;;;;;4948260;28;20245;-65
2021/12/17 14:46:03;;;;;;;14.30;4.07;;;;;;;;;;4934032;28;20318;-66
2021/12/17 14:48:40;;;;;;;19.50;4.17;;;;;;;;;;4930543;28;20226;-66
2021/12/17 15:04:37;;;;;;;16.77;4.37;;;;;;;;;;4969469;28;20260;-65
2021/12/17 15:07:03;;;;;;;13.23;4.10;;;;;;;;;;4945601;28;20243;-66
2021/12/17 15:09:35;;;;;;;19.80;4.27;;;;;;;;;;4953483;28;20524;-66
2021/12/17 15:12:13;;;;;;;17.80;4.27;;;;;;;;;;4935597;28;20231;-66
2021/12/17 15:14:39;;;;;;;15.30;4.10;;;;;;;;;;4949472;28;20219;-66
2021/12/17 15:17:06;;;;;;;15.27;4.10;;;;;;;;;;4965037;28;20454;-68
2021/12/17 15:19:34;;;;;;;12.90;4.53;;;;;;;;;;4960958;28;20227;-65
2021/12/17 15:22:00;;;;;;;11.57;4.27;;;;;;;;;;4935230;28;20317;-64
2021/12/17 15:24:36;;;;;;;19.13;4.50;;;;;;;;;;4928151;28;20770;-64
2021/12/17 15:27:02;;;;;;;16.40;4.30;;;;;;;;;;4956396;28;20397;-67
2021/12/17 15:29:29;;;;;;;18.40;4.67;;;;;;;;;;4949720;28;20345;-68
2021/12/17 15:31:56;;;;;;;12.67;3.97;;;;;;;;;;4955267;28;20233;-66
2021/12/17 15:34:23;;;;;;;15.57;4.20;;;;;;;;;;4968754;28;20239;-67
2021/12/17 15:36:50;;;;;;;12.27;4.57;;;;;;;;;;4968312;28;21185;-67
2021/12/17 15:39:17;;;;;;;12.93;4.43;;;;;;;;;;4956980;28;20235;-66
2021/12/17 15:41:43;;;;;;;13.97;3.73;;;;;;;;;;4966941;28;20325;-66
2021/12/17 15:44:10;;;;;;;20.13;4.23;;;;;;;;;;4982142;28;20227;-67
2021/12/17 15:46:38;;;;;;;13.00;3.40;;;;;;;;;;4959676;28;20737;-67
2021/12/17 15:49:05;;;;;;;16.47;4.23;;;;;;;;;;4962718;28;20227;-66
2021/12/17 15:51:34;;;;;;;12.37;4.30;;;;;;;;;;4966158;28;20763;-67
2021/12/17 15:54:01;;;;;;;16.67;4.47;;;;;;;;;;4932265;28;20607;-66
2021/12/17 15:56:28;;;;;;;13.10;3.80;;;;;;;;;;4966221;28;20767;-67
2021/12/17 15:58:54;;;;;;;17.10;4.40;;;;;;;;;;4953064;28;20336;-68
2021/12/17 16:01:24;;;;;;;15.30;4.40;;;;;;;;;;4961119;28;20591;-67
2021/12/17 16:03:50;;;;;;;12.17;3.77;;;;;;;;;;4953637;28;20343;-66
2021/12/17 16:06:17;;;;;;;13.73;4.17;;;;;;;;;;4940246;28;20255;-67
2021/12/17 16:08:47;;;;;;;17.43;4.47;;;;;;;;;;4967080;28;20737;-67
2021/12/17 16:21:56;;;;;;;16.07;5.93;;;;;;;;;;4970747;28;20715;-68
2021/12/17 16:24:23;;;;;;;13.90;4.50;;;;;;;;;;4965331;28;20348;-67
2021/12/17 16:26:50;;;;;;;17.67;3.87;;;;;;;;;;4949701;28;20884;-67
2021/12/17 16:29:18;;;;;;;16.60;4.33;;;;;;;;;;4964666;28;20259;-66
2021/12/17 16:31:46;;;;;;;12.07;3.80;;;;;;;;;;4952836;28;20274;-67
2021/12/17 16:34:13;;;;;;;15.03;4.23;;;;;;;;;;4992008;28;20733;-66
2021/12/17 16:36:40;;;;;;;14.80;4.30;;;;;;;;;;4975863;28;20318;-67
2021/12/17 16:39:11;;;;;;;17.97;3.90;;;;;;;;;;4956868;28;20282;-67
2021/12/17 16:41:38;;;;;;;15.50;3.80;;;;;;;;;;4961776;28;20235;-66
2021/12/17 16:44:10;;;;;;;11.77;3.83;;;;;;;;;;4937934;28;20220;-67
2021/12/17 16:49:12;;;;;;;14.60;3.63;;;;;;;;;;4974581;28;21042;-66
2021/12/17 16:51:39;;;;;;;8.93;3.07;;;;;;;;;;4959640;28;20347;-69
2021/12/17 16:54:07;;;;;;;10.53;3.30;;;;;;;;;;4942419;28;20235;-65
2021/12/17 16:56:33;;;;;;;16.93;3.63;;;;;;;;;;4947249;28;20230;-66
2021/12/17 16:59:00;;;;;;;14.47;3.60;;;;;;;;;;4965909;28;20320;-65
2021/12/17 17:01:27;;;;;;;14.03;3.80;;;;;;;;;;4971489;28;20326;-68
2021/12/17 17:03:54;;;;;;;16.30;3.80;;;;;;;;;;4967551;28;20250;-66
2021/12/17 17:06:24;;;;;;;14.87;4.30;;;;;;;;;;4967248;28;20324;-67
2021/12/17 17:08:52;;;;;;;16.10;3.73;;;;;;;;;;4957505;28;20312;-67
2021/12/17 17:11:18;;;;;;;12.17;3.27;;;;;;;;;;4941315;28;20238;-66
2021/12/17 17:13:45;;;;;;;19.77;3.70;;;;;;;;;;4973019;28;20270;-67
2021/12/17 17:16:13;;;;;;;12.83;3.13;;;;;;;;;;4973291;28;20231;-67
2021/12/17 17:18:39;;;;;;;11.40;3.17;;;;;;;;;;4989169;28;20227;-66
2021/12/17 17:21:07;;;;;;;10.40;2.93;;;;;;;;;;4954679;28;20358;-65
2021/12/17 17:23:35;;;;;;;13.60;3.30;;;;;;;;;;4961504;28;20326;-66
2021/12/17 17:26:02;;;;;;;13.03;3.37;;;;;;;;;;4976249;28;20232;-67
2021/12/17 17:28:29;;;;;;;12.07;4.10;;;;;;;;;;4945907;28;20219;-67
2021/12/17 17:30:56;;;;;;;12.77;3.17;;;;;;;;;;4974997;28;20235;-66
2021/12/17 17:33:24;;;;;;;15.53;3.30;;;;;;;;;;4966602;28;20232;-65
2021/12/17 17:35:51;;;;;;;11.57;3.40;;;;;;;;;;4981232;28;20802;-65
2021/12/17 17:38:18;;;;;;;10.80;2.70;;;;;;;;;;4956486;28;20279;-65
2021/12/17 17:40:45;;;;;;;10.50;2.70;;;;;;;;;;4968661;28;20314;-66
2021/12/17 17:43:12;;;;;;;15.20;3.10;;;;;;;;;;4952548;28;20318;-66
2021/12/17 17:45:40;;;;;;;16.53;3.23;;;;;;;;;;4958500;28;20773;-65
2021/12/17 17:48:08;;;;;;;12.27;3.13;;;;;;;;;;4958297;28;20231;-67
2021/12/17 17:50:37;;;;;;;13.37;3.27;;;;;;;;;;4953560;28;20313;-65
2021/12/17 17:53:04;;;;;;;9.03;2.90;;;;;;;;;;4955435;28;20260;-66
2021/12/17 17:55:32;;;;;;;12.83;2.73;;;;;;;;;;4935405;28;20235;-67
2021/12/17 17:57:59;;;;;;;11.73;3.17;;;;;;;;;;4966258;28;20613;-67
2021/12/17 18:00:29;;;;;;;9.80;2.70;;;;;;;;;;4944724;28;20224;-67
2021/12/17 18:02:56;;;;;;;10.73;2.80;;;;;;;;;;4963160;28;20737;-67
2021/12/17 18:05:23;;;;;;;14.13;3.70;;;;;;;;;;4957099;28;20242;-66
2021/12/17 18:07:51;;;;;;;9.13;2.70;;;;;;;;;;4974295;28;20231;-68
2021/12/17 18:10:18;;;;;;;12.50;2.77;;;;;;;;;;4971033;28;20984;-67
2021/12/17 18:12:50;;;;;;;13.60;2.93;;;;;;;;;;4951672;28;20261;-69